sensor_id;sensor_type;location;lat;lon;timestamp;pressure;altitude;pressure_sealevel;temperature;humidity
929;BME280;451;47.988;7.842;2023-04-29T00:08:56;98257.75;;;15.47;100.00
929;BME280;451;47.988;7.842;2023-04-29T00:18:00;98262.88;;;15.22;100.00
929;BME280;451;47.988;7.842;2023-04-29T00:27:03;98262.06;;;15.09;100.00
929;BME280;451;47.988;7.842;2023-04-29T00:36:08;98258.97;;;15.51;100.00
929;BME280;451;47.988;7.842;2023-04-29T00:45:11;98252.88;;;15.24;100.00
929;BME280;451;47.988;7.842;2023-04-29T00:54:16;98247.81;;;14.90;100.00
929;BME280;451;47.988;7.842;2023-04-29T01:03:20;98255.94;;;14.75;100.00
929;BME280;451;47.988;7.842;2023-04-29T01:12:32;98243.50;;;14.69;100.00
929;BME280;451;47.988;7.842;2023-04-29T01:21:44;98252.88;;;14.65;100.00
929;BME280;451;47.988;7.842;2023-04-29T01:30:55;98254.47;;;14.53;100.00
929;BME280;451;47.988;7.842;2023-04-29T01:40:09;98184.06;;;14.45;100.00
929;BME280;451;47.988;7.842;2023-04-29T01:49:20;98237.81;;;14.66;100.00
929;BME280;451;47.988;7.842;2023-04-29T01:58:24;98225.78;;;14.63;100.00
929;BME280;451;47.988;7.842;2023-04-29T02:07:42;98231.28;;;14.68;100.00
929;BME280;451;47.988;7.842;2023-04-29T02:16:45;98227.19;;;14.46;100.00
929;BME280;451;47.988;7.842;2023-04-29T02:25:50;98248.41;;;14.72;100.00
929;BME280;451;47.988;7.842;2023-04-29T02:34:53;98284.75;;;14.44;100.00
929;BME280;451;47.988;7.842;2023-04-29T02:43:58;98228.34;;;14.37;100.00
929;BME280;451;47.988;7.842;2023-04-29T02:53:01;98251.41;;;14.49;100.00
929;BME280;451;47.988;7.842;2023-04-29T03:02:05;98254.31;;;14.13;100.00
929;BME280;451;47.988;7.842;2023-04-29T03:11:08;98180.78;;;13.76;100.00
929;BME280;451;47.988;7.842;2023-04-29T03:20:14;98125.25;;;13.63;100.00
929;BME280;451;47.988;7.842;2023-04-29T03:29:17;98246.72;;;14.51;100.00
929;BME280;451;47.988;7.842;2023-04-29T03:38:23;98239.72;;;14.31;100.00
929;BME280;451;47.988;7.842;2023-04-29T03:47:29;98247.66;;;14.31;100.00
929;BME280;451;47.988;7.842;2023-04-29T03:56:33;98238.09;;;14.23;100.00
929;BME280;451;47.988;7.842;2023-04-29T04:05:38;98257.53;;;14.02;100.00
929;BME280;451;47.988;7.842;2023-04-29T04:14:47;98253.09;;;14.09;100.00
929;BME280;451;47.988;7.842;2023-04-29T04:23:51;98266.94;;;14.11;100.00
929;BME280;451;47.988;7.842;2023-04-29T04:33:00;98268.13;;;14.09;100.00
929;BME280;451;47.988;7.842;2023-04-29T04:42:03;98230.41;;;14.35;100.00
929;BME280;451;47.988;7.842;2023-04-29T04:51:11;98290.50;;;14.54;100.00
929;BME280;451;47.988;7.842;2023-04-29T05:00:14;98293.94;;;14.48;100.00
929;BME280;451;47.988;7.842;2023-04-29T05:09:19;98320.44;;;14.61;100.00
929;BME280;451;47.988;7.842;2023-04-29T05:18:22;98324.16;;;14.93;100.00
929;BME280;451;47.988;7.842;2023-04-29T05:27:28;98280.59;;;15.28;100.00
929;BME280;451;47.988;7.842;2023-04-29T05:36:32;98340.94;;;15.59;100.00
929;BME280;451;47.988;7.842;2023-04-29T05:45:36;98348.53;;;14.69;100.00
929;BME280;451;47.988;7.842;2023-04-29T05:54:39;98377.78;;;15.28;100.00
929;BME280;451;47.988;7.842;2023-04-29T06:03:44;98395.28;;;15.09;100.00
929;BME280;451;47.988;7.842;2023-04-29T06:13:17;98300.97;;;15.15;100.00
929;BME280;451;47.988;7.842;2023-04-29T06:22:21;98400.78;;;16.20;100.00
929;BME280;451;47.988;7.842;2023-04-29T06:31:28;98413.41;;;16.37;100.00
929;BME280;451;47.988;7.842;2023-04-29T06:40:37;98412.25;;;16.07;99.81
929;BME280;451;47.988;7.842;2023-04-29T06:49:56;98390.31;;;16.44;88.53
929;BME280;451;47.988;7.842;2023-04-29T06:59:01;98423.97;;;16.57;86.93
929;BME280;451;47.988;7.842;2023-04-29T07:08:05;98423.66;;;16.14;88.43
929;BME280;451;47.988;7.842;2023-04-29T07:17:09;98391.91;;;16.59;88.33
929;BME280;451;47.988;7.842;2023-04-29T07:26:16;98448.31;;;17.05;83.95
929;BME280;451;47.988;7.842;2023-04-29T07:35:22;98452.53;;;16.68;87.35
929;BME280;451;47.988;7.842;2023-04-29T07:44:25;98468.72;;;17.11;84.88
929;BME280;451;47.988;7.842;2023-04-29T07:53:30;98462.91;;;17.27;86.95
929;BME280;451;47.988;7.842;2023-04-29T08:02:33;98445.78;;;17.23;79.63
929;BME280;451;47.988;7.842;2023-04-29T08:11:38;98455.31;;;16.93;77.05
929;BME280;451;47.988;7.842;2023-04-29T08:20:41;98469.47;;;17.88;73.85
929;BME280;451;47.988;7.842;2023-04-29T08:29:46;98470.84;;;17.72;73.11
929;BME280;451;47.988;7.842;2023-04-29T08:38:49;98448.19;;;17.88;74.16
929;BME280;451;47.988;7.842;2023-04-29T08:47:55;98461.59;;;17.05;76.93
929;BME280;451;47.988;7.842;2023-04-29T08:56:58;98459.06;;;17.55;75.43
929;BME280;451;47.988;7.842;2023-04-29T09:06:05;98451.84;;;17.93;73.05
929;BME280;451;47.988;7.842;2023-04-29T09:15:09;98462.06;;;17.96;73.44
929;BME280;451;47.988;7.842;2023-04-29T09:24:24;98466.41;;;18.16;71.14
929;BME280;451;47.988;7.842;2023-04-29T09:33:27;98470.63;;;18.84;69.60
929;BME280;451;47.988;7.842;2023-04-29T09:42:41;98464.34;;;18.61;72.27
929;BME280;451;47.988;7.842;2023-04-29T09:51:51;98426.16;;;18.85;68.53
929;BME280;451;47.988;7.842;2023-04-29T10:00:57;98464.78;;;20.07;64.57
929;BME280;451;47.988;7.842;2023-04-29T10:10:01;98461.09;;;20.31;60.92
929;BME280;451;47.988;7.842;2023-04-29T10:19:11;98465.59;;;19.24;64.41
929;BME280;451;47.988;7.842;2023-04-29T10:28:17;98458.75;;;20.00;61.65
929;BME280;451;47.988;7.842;2023-04-29T10:37:23;98462.72;;;19.26;61.20
929;BME280;451;47.988;7.842;2023-04-29T10:46:26;98449.75;;;19.59;61.01
929;BME280;451;47.988;7.842;2023-04-29T10:55:35;98445.50;;;20.75;58.43
929;BME280;451;47.988;7.842;2023-04-29T11:05:05;98438.94;;;20.94;56.82
929;BME280;451;47.988;7.842;2023-04-29T11:14:12;98430.31;;;21.15;56.54
929;BME280;451;47.988;7.842;2023-04-29T11:23:16;98428.31;;;21.22;57.33
929;BME280;451;47.988;7.842;2023-04-29T11:32:21;98428.22;;;20.66;58.50
929;BME280;451;47.988;7.842;2023-04-29T11:41:25;98421.50;;;20.51;59.86
929;BME280;451;47.988;7.842;2023-04-29T11:50:29;98426.50;;;20.25;59.59
929;BME280;451;47.988;7.842;2023-04-29T11:59:33;98428.94;;;20.14;59.84
929;BME280;451;47.988;7.842;2023-04-29T12:08:37;98426.88;;;20.05;59.96
929;BME280;451;47.988;7.842;2023-04-29T12:17:41;98425.03;;;20.92;56.75
929;BME280;451;47.988;7.842;2023-04-29T12:26:46;98403.81;;;21.92;54.74
929;BME280;451;47.988;7.842;2023-04-29T12:35:49;98412.13;;;20.89;55.52
929;BME280;451;47.988;7.842;2023-04-29T12:44:54;98436.06;;;21.52;54.33
929;BME280;451;47.988;7.842;2023-04-29T12:53:58;98425.25;;;20.39;56.76
929;BME280;451;47.988;7.842;2023-04-29T13:03:03;98319.81;;;20.70;56.92
929;BME280;451;47.988;7.842;2023-04-29T13:12:07;98357.56;;;19.52;57.96
929;BME280;451;47.988;7.842;2023-04-29T13:21:12;98394.63;;;20.70;56.56
929;BME280;451;47.988;7.842;2023-04-29T13:30:16;98414.91;;;20.42;58.55
929;BME280;451;47.988;7.842;2023-04-29T13:39:28;98394.69;;;20.00;59.53
929;BME280;451;47.988;7.842;2023-04-29T13:48:31;98418.84;;;20.40;58.37
929;BME280;451;47.988;7.842;2023-04-29T13:57:36;98470.03;;;20.02;57.21
929;BME280;451;47.988;7.842;2023-04-29T14:06:41;98448.69;;;19.49;59.76
929;BME280;451;47.988;7.842;2023-04-29T14:15:46;98452.88;;;19.56;59.47
929;BME280;451;47.988;7.842;2023-04-29T14:24:49;98437.44;;;19.17;59.11
929;BME280;451;47.988;7.842;2023-04-29T14:33:54;98442.84;;;19.10;59.65
929;BME280;451;47.988;7.842;2023-04-29T14:42:57;98459.34;;;19.01;60.62
929;BME280;451;47.988;7.842;2023-04-29T14:52:01;98457.44;;;18.89;60.31
929;BME280;451;47.988;7.842;2023-04-29T15:01:04;98461.44;;;18.99;59.52
929;BME280;451;47.988;7.842;2023-04-29T15:10:09;98467.75;;;18.00;61.10
929;BME280;451;47.988;7.842;2023-04-29T15:19:12;98482.38;;;18.16;62.42
929;BME280;451;47.988;7.842;2023-04-29T15:28:16;98459.44;;;18.14;61.92
929;BME280;451;47.988;7.842;2023-04-29T15:37:19;98472.59;;;18.09;62.31
929;BME280;451;47.988;7.842;2023-04-29T15:46:24;98386.94;;;17.45;61.83
929;BME280;451;47.988;7.842;2023-04-29T15:55:28;98503.69;;;17.84;62.73
929;BME280;451;47.988;7.842;2023-04-29T16:04:33;98501.72;;;17.73;63.22
929;BME280;451;47.988;7.842;2023-04-29T16:13:35;98483.78;;;16.73;65.15
929;BME280;451;47.988;7.842;2023-04-29T16:22:40;98497.56;;;17.46;63.49
929;BME280;451;47.988;7.842;2023-04-29T16:31:43;98517.56;;;17.55;63.56
929;BME280;451;47.988;7.842;2023-04-29T16:40:47;98528.97;;;17.24;63.57
929;BME280;451;47.988;7.842;2023-04-29T16:49:50;98518.44;;;17.42;63.14
929;BME280;451;47.988;7.842;2023-04-29T16:58:57;98530.81;;;17.23;63.35
929;BME280;451;47.988;7.842;2023-04-29T17:08:00;98564.31;;;17.24;63.38
929;BME280;451;47.988;7.842;2023-04-29T17:17:07;98544.84;;;16.86;64.90
929;BME280;451;47.988;7.842;2023-04-29T17:26:10;98522.22;;;16.11;67.73
929;BME280;451;47.988;7.842;2023-04-29T17:35:14;98533.84;;;16.30;69.28
929;BME280;451;47.988;7.842;2023-04-29T17:44:17;98548.53;;;16.65;68.74
929;BME280;451;47.988;7.842;2023-04-29T17:53:22;98567.72;;;16.34;72.22
929;BME280;451;47.988;7.842;2023-04-29T18:02:25;98578.84;;;15.70;75.91
929;BME280;451;47.988;7.842;2023-04-29T18:11:29;98541.00;;;15.29;79.26
929;BME280;451;47.988;7.842;2023-04-29T18:20:33;98578.03;;;15.16;80.57
929;BME280;451;47.988;7.842;2023-04-29T18:29:37;98561.94;;;15.17;82.51
929;BME280;451;47.988;7.842;2023-04-29T18:38:40;98567.31;;;14.96;84.43
929;BME280;451;47.988;7.842;2023-04-29T18:47:45;98491.28;;;14.42;85.41
929;BME280;451;47.988;7.842;2023-04-29T18:56:50;98608.00;;;14.88;88.32
929;BME280;451;47.988;7.842;2023-04-29T19:05:55;98584.03;;;14.97;89.33
929;BME280;451;47.988;7.842;2023-04-29T19:14:58;98597.44;;;14.95;90.50
929;BME280;451;47.988;7.842;2023-04-29T19:24:03;98583.84;;;14.98;91.86
929;BME280;451;47.988;7.842;2023-04-29T19:33:06;98609.84;;;14.60;94.51
929;BME280;451;47.988;7.842;2023-04-29T19:42:11;98590.03;;;14.28;96.87
929;BME280;451;47.988;7.842;2023-04-29T19:51:14;98541.16;;;13.39;100.00
929;BME280;451;47.988;7.842;2023-04-29T20:00:18;98620.97;;;14.49;98.79
929;BME280;451;47.988;7.842;2023-04-29T20:09:21;98632.00;;;13.95;99.40
929;BME280;451;47.988;7.842;2023-04-29T20:18:26;98629.53;;;13.72;100.00
929;BME280;451;47.988;7.842;2023-04-29T20:27:29;98622.78;;;13.70;100.00
929;BME280;451;47.988;7.842;2023-04-29T20:36:34;98639.91;;;13.74;100.00
929;BME280;451;47.988;7.842;2023-04-29T20:45:38;98616.25;;;13.87;100.00
929;BME280;451;47.988;7.842;2023-04-29T20:54:42;98631.56;;;13.92;100.00
929;BME280;451;47.988;7.842;2023-04-29T21:03:45;98625.53;;;13.62;100.00
929;BME280;451;47.988;7.842;2023-04-29T21:12:50;98508.34;;;13.12;100.00
929;BME280;451;47.988;7.842;2023-04-29T21:21:53;98626.84;;;13.51;100.00
929;BME280;451;47.988;7.842;2023-04-29T21:30:57;98635.31;;;13.61;100.00
929;BME280;451;47.988;7.842;2023-04-29T21:40:00;98644.25;;;13.31;100.00
929;BME280;451;47.988;7.842;2023-04-29T21:49:06;98642.72;;;13.37;100.00
929;BME280;451;47.988;7.842;2023-04-29T21:58:09;98631.19;;;13.59;100.00
929;BME280;451;47.988;7.842;2023-04-29T22:07:13;98636.31;;;13.46;100.00
929;BME280;451;47.988;7.842;2023-04-29T22:16:18;98627.56;;;13.30;100.00
929;BME280;451;47.988;7.842;2023-04-29T22:25:22;98627.13;;;13.42;100.00
929;BME280;451;47.988;7.842;2023-04-29T22:34:25;98620.19;;;13.55;100.00
929;BME280;451;47.988;7.842;2023-04-29T22:43:30;98643.75;;;13.71;100.00
929;BME280;451;47.988;7.842;2023-04-29T22:52:33;98596.16;;;13.06;100.00
929;BME280;451;47.988;7.842;2023-04-29T23:01:37;98629.94;;;13.55;100.00
929;BME280;451;47.988;7.842;2023-04-29T23:10:40;98646.66;;;13.62;100.00
929;BME280;451;47.988;7.842;2023-04-29T23:19:47;98643.88;;;13.34;100.00
929;BME280;451;47.988;7.842;2023-04-29T23:28:50;98644.88;;;13.48;100.00
929;BME280;451;47.988;7.842;2023-04-29T23:37:54;98653.00;;;13.17;100.00
929;BME280;451;47.988;7.842;2023-04-29T23:46:57;98657.34;;;13.39;100.00
929;BME280;451;47.988;7.842;2023-04-29T23:56:02;98626.09;;;12.84;100.00
